Time;durP1;ratioP1;P1;durP2;ratioP2;P2;SDS_P1;SDS_P2;PMS_P1;PMS_P2;Temp;Humidity;BMP_temperature;BMP_pressure;BME280_temperature;BME280_humidity;BME280_pressure;Samples;Min_cycle;Max_cycle;Signal;HPM_P1;HPM_P2
2022/11/05 09:33:20;;;;;;;3.40;1.50;;;10.40;99.90;;;;;;3554654;23;20604;-69
2022/11/05 09:35:47;;;;;;;3.90;1.40;;;10.50;99.90;;;;;;4896594;29;20653;-68
2022/11/05 09:38:14;;;;;;;3.60;1.60;;;10.60;99.90;;;;;;4903331;29;20214;-68
2022/11/05 09:40:49;;;;;;;3.23;1.60;;;10.80;99.90;;;;;;4891972;29;20241;-68
2022/11/05 09:43:20;;;;;;;3.60;1.20;;;10.70;99.90;;;;;;4881187;29;20207;-68
2022/11/05 09:45:49;;;;;;;1.70;1.10;;;10.70;99.90;;;;;;4880545;29;20208;-68
2022/11/05 09:48:23;;;;;;;2.30;1.60;;;10.80;99.90;;;;;;4879943;29;20222;-67
2022/11/05 09:50:52;;;;;;;4.80;1.40;;;10.90;99.90;;;;;;4880464;29;20239;-70
2022/11/05 09:53:22;;;;;;;3.87;1.50;;;11.00;99.90;;;;;;4880783;29;20218;-72
2022/11/05 09:55:53;;;;;;;4.10;1.40;;;11.10;99.90;;;;;;4880361;29;20222;-65
2022/11/05 09:58:25;;;;;;;3.23;1.50;;;11.20;99.90;;;;;;4880736;29;20215;-71
2022/11/05 10:00:52;;;;;;;3.30;1.30;;;11.20;99.90;;;;;;4880744;29;20231;-68
2022/11/05 10:03:23;;;;;;;8.00;1.50;;;11.10;99.90;;;;;;4880016;29;20211;-68
2022/11/05 10:05:51;;;;;;;2.93;1.50;;;11.10;99.90;;;;;;4879265;29;20214;-67
2022/11/05 10:08:22;;;;;;;2.23;1.20;;;11.30;99.90;;;;;;4879519;29;20219;-68
2022/11/05 10:10:51;;;;;;;3.80;1.33;;;11.40;99.90;;;;;;4880270;29;20328;-68
2022/11/05 10:13:25;;;;;;;4.60;1.73;;;11.40;99.90;;;;;;4880101;29;20207;-67
2022/11/05 10:16:01;;;;;;;1.87;1.10;;;11.30;99.90;;;;;;4880141;29;20234;-67
2022/11/05 10:18:33;;;;;;;2.63;1.50;;;11.30;99.90;;;;;;4880853;29;20230;-67
2022/11/05 10:21:01;;;;;;;4.43;1.60;;;11.30;99.90;;;;;;4880804;29;20238;-67
2022/11/05 10:23:28;;;;;;;7.77;2.37;;;11.30;99.90;;;;;;4881046;29;20207;-67
2022/11/05 10:25:59;;;;;;;6.10;2.30;;;11.30;99.90;;;;;;4880631;29;20347;-66
2022/11/05 10:28:29;;;;;;;3.43;1.60;;;11.40;99.90;;;;;;4880513;29;20215;-68
2022/11/05 10:30:58;;;;;;;3.97;1.70;;;11.50;99.90;;;;;;4880672;29;20321;-69
2022/11/05 10:33:33;;;;;;;2.57;1.20;;;11.40;99.90;;;;;;4894306;29;20218;-66
2022/11/05 10:36:03;;;;;;;2.87;1.30;;;11.40;99.90;;;;;;4881725;29;20214;-68
2022/11/05 10:38:31;;;;;;;3.03;1.50;;;11.30;99.90;;;;;;4880343;29;20207;-67
2022/11/05 10:41:09;;;;;;;3.80;1.80;;;11.30;99.90;;;;;;4880906;29;20238;-69
2022/11/05 10:43:42;;;;;;;4.03;1.20;;;11.30;99.90;;;;;;4880907;29;20217;-67
2022/11/05 10:46:24;;;;;;;3.80;1.47;;;11.30;99.90;;;;;;4877811;29;20246;-66
2022/11/05 10:49:04;;;;;;;3.30;1.50;;;11.30;99.90;;;;;;4880151;29;20229;-66
2022/11/05 10:51:33;;;;;;;2.10;1.30;;;11.40;99.90;;;;;;4880122;29;20227;-67
2022/11/05 10:54:04;;;;;;;2.83;1.47;;;11.50;99.90;;;;;;4880661;29;20207;-65
2022/11/05 10:56:34;;;;;;;4.00;1.20;;;11.70;99.90;;;;;;4880092;29;20572;-65
2022/11/05 10:59:02;;;;;;;2.17;1.30;;;11.80;99.90;;;;;;4880653;29;20211;-66
2022/11/05 11:01:30;;;;;;;2.07;1.10;;;11.90;99.90;;;;;;4880434;29;20283;-65
2022/11/05 11:04:20;;;;;;;2.30;1.10;;;12.10;99.90;;;;;;4880607;29;20211;-65
2022/11/05 11:06:51;;;;;;;2.87;1.20;;;12.00;99.90;;;;;;4879786;29;20247;-66
2022/11/05 11:09:25;;;;;;;9.23;2.90;;;12.10;99.90;;;;;;4880309;29;20211;-65
2022/11/05 11:12:14;;;;;;;5.00;1.30;;;12.20;99.90;;;;;;4880423;29;20246;-65
2022/11/05 11:14:41;;;;;;;1.77;0.93;;;12.20;99.90;;;;;;4880289;29;20222;-65
2022/11/05 11:17:25;;;;;;;2.17;1.13;;;12.10;99.90;;;;;;4880076;29;20218;-65
2022/11/05 11:20:19;;;;;;;3.63;1.10;;;12.10;99.90;;;;;;4880090;29;20262;-65
2022/11/05 11:23:00;;;;;;;2.87;0.90;;;12.20;99.90;;;;;;4880587;29;20211;-65
2022/11/05 11:25:29;;;;;;;2.07;1.00;;;12.10;99.90;;;;;;4879798;29;20219;-65
2022/11/05 11:28:01;;;;;;;3.80;1.10;;;12.10;99.90;;;;;;4880009;29;20291;-65
2022/11/05 11:30:28;;;;;;;1.33;0.83;;;12.00;99.90;;;;;;4880004;29;20231;-64
2022/11/05 11:33:03;;;;;;;3.03;0.90;;;11.80;99.90;;;;;;4880271;29;20306;-66
2022/11/05 11:35:32;;;;;;;2.77;0.93;;;11.70;99.90;;;;;;4879939;29;20223;-66
2022/11/05 11:38:00;;;;;;;1.10;0.73;;;11.70;99.90;;;;;;4879868;29;20233;-66
2022/11/05 11:40:31;;;;;;;2.80;1.10;;;11.80;99.90;;;;;;4879849;29;20227;-66
2022/11/05 11:43:01;;;;;;;3.67;1.10;;;12.00;99.90;;;;;;4879583;29;20211;-66
2022/11/05 11:45:32;;;;;;;5.53;1.03;;;12.10;99.90;;;;;;4879096;29;20207;-66
2022/11/05 11:48:02;;;;;;;1.83;1.00;;;12.30;99.90;;;;;;4879216;29;20239;-66
2022/11/05 11:50:36;;;;;;;1.67;0.80;;;12.40;99.90;;;;;;4878784;29;20291;-65
2022/11/05 11:53:26;;;;;;;3.47;0.93;;;12.40;99.90;;;;;;4879535;29;20207;-65
2022/11/05 11:56:05;;;;;;;1.33;0.90;;;12.50;99.90;;;;;;4879810;29;20211;-65
2022/11/05 11:58:39;;;;;;;1.83;0.93;;;12.50;99.90;;;;;;4879368;29;20225;-65
2022/11/05 12:01:21;;;;;;;2.70;0.90;;;12.50;99.90;;;;;;4879582;29;20231;-65
2022/11/05 12:03:51;;;;;;;1.40;0.67;;;12.50;99.90;;;;;;4879747;29;20241;-65
2022/11/05 12:06:27;;;;;;;2.57;0.90;;;12.60;99.90;;;;;;4879483;29;20219;-67
2022/11/05 12:09:02;;;;;;;3.73;0.90;;;12.60;99.90;;;;;;4879462;29;20210;-65
2022/11/05 12:11:33;;;;;;;3.13;1.00;;;12.80;99.90;;;;;;4879351;29;20237;-66
2022/11/05 12:14:04;;;;;;;2.10;0.80;;;12.90;99.90;;;;;;4879520;29;20566;-66
2022/11/05 12:16:53;;;;;;;6.20;1.60;;;12.90;99.90;;;;;;4879570;29;20207;-65
2022/11/05 12:19:33;;;;;;;3.77;0.80;;;12.90;99.90;;;;;;4879116;29;20221;-65
2022/11/05 12:22:11;;;;;;;1.67;0.80;;;13.00;99.90;;;;;;4879282;29;20235;-66
2022/11/05 12:24:55;;;;;;;2.63;1.30;;;13.00;99.90;;;;;;4879289;29;20221;-65
2022/11/05 12:27:43;;;;;;;1.90;0.90;;;13.10;99.90;;;;;;4879163;29;20244;-66
2022/11/05 12:30:13;;;;;;;1.43;0.70;;;13.20;99.90;;;;;;4879153;29;20241;-65
2022/11/05 12:32:55;;;;;;;2.73;0.80;;;13.40;99.90;;;;;;4879425;29;20215;-65
2022/11/05 12:35:45;;;;;;;3.50;1.00;;;13.30;99.90;;;;;;4879017;29;20237;-65
2022/11/05 12:38:23;;;;;;;2.70;0.97;;;13.20;99.90;;;;;;4878453;29;20210;-65
2022/11/05 12:41:15;;;;;;;1.33;0.80;;;13.20;99.90;;;;;;4879382;29;20234;-65
2022/11/05 12:43:56;;;;;;;5.03;1.07;;;13.10;99.90;;;;;;4879090;29;20671;-65
2022/11/05 12:46:28;;;;;;;4.60;1.60;;;13.20;99.90;;;;;;4878917;29;20207;-65
2022/11/05 12:49:34;;;;;;;2.77;1.00;;;13.10;99.90;;;;;;4878706;29;20682;-66
2022/11/05 12:52:19;;;;;;;2.93;1.10;;;13.10;99.90;;;;;;4879246;29;20241;-65
2022/11/05 12:54:59;;;;;;;4.77;1.00;;;13.10;99.90;;;;;;4878671;29;20218;-65
2022/11/05 12:57:28;;;;;;;3.43;1.20;;;13.10;99.90;;;;;;4878662;29;20623;-67
2022/11/05 13:00:02;;;;;;;1.43;0.83;;;13.10;99.90;;;;;;4879053;29;20274;-68
2022/11/05 13:02:34;;;;;;;2.77;1.10;;;13.00;99.90;;;;;;4882029;29;20218;-69
2022/11/05 13:05:05;;;;;;;2.03;1.10;;;13.00;99.90;;;;;;4882436;29;20211;-66
2022/11/05 13:07:37;;;;;;;4.37;1.10;;;12.90;99.90;;;;;;4882143;29;20244;-65
2022/11/05 13:10:27;;;;;;;2.63;1.00;;;12.80;99.90;;;;;;4882615;29;20235;-66
2022/11/05 13:13:00;;;;;;;4.40;1.30;;;12.80;99.90;;;;;;4882793;29;20263;-66
2022/11/05 13:15:32;;;;;;;2.57;1.10;;;12.70;99.90;;;;;;4882568;29;20240;-65
2022/11/05 13:18:02;;;;;;;3.30;1.00;;;12.80;99.90;;;;;;4882292;29;20215;-66
2022/11/05 13:20:33;;;;;;;3.40;1.27;;;13.00;99.90;;;;;;4882323;29;20231;-68
2022/11/05 13:23:06;;;;;;;2.77;1.20;;;13.10;99.90;;;;;;4882269;29;20211;-66
2022/11/05 13:25:40;;;;;;;1.47;0.80;;;13.10;99.90;;;;;;4882156;29;20227;-66
2022/11/05 13:28:16;;;;;;;2.07;1.50;;;13.10;99.90;;;;;;4882065;29;20238;-65
2022/11/05 13:30:46;;;;;;;3.83;0.80;;;13.20;99.90;;;;;;4882131;29;20230;-65
2022/11/05 13:33:16;;;;;;;5.83;1.30;;;13.30;99.90;;;;;;4881968;29;20207;-65
2022/11/05 13:35:47;;;;;;;3.57;1.07;;;13.20;99.90;;;;;;4882024;29;20586;-65
2022/11/05 13:41:31;;;;;;;4.07;1.17;;;13.40;99.90;;;;;;4872083;29;20682;-65
2022/11/05 13:44:21;;;;;;;1.83;1.10;;;13.40;99.90;;;;;;4882174;29;20215;-66
2022/11/05 13:47:08;;;;;;;2.47;1.13;;;13.40;99.90;;;;;;4881970;29;20682;-65
2022/11/05 13:49:58;;;;;;;4.00;1.20;;;13.40;99.90;;;;;;4881802;29;20282;-65
2022/11/05 13:52:59;;;;;;;3.90;1.10;;;13.60;99.90;;;;;;4881873;29;20211;-69
2022/11/05 13:55:56;;;;;;;1.53;0.80;;;13.60;99.90;;;;;;4881711;29;20218;-65
2022/11/05 13:58:45;;;;;;;2.13;1.13;;;13.50;99.90;;;;;;4875774;29;20249;-65
2022/11/05 14:01:24;;;;;;;1.47;0.90;;;13.40;99.90;;;;;;4882067;29;20231;-65
2022/11/05 14:03:53;;;;;;;1.60;0.90;;;13.40;99.90;;;;;;4881585;29;20217;-66
2022/11/05 14:06:25;;;;;;;3.47;1.10;;;13.30;99.90;;;;;;4881621;29;20207;-68
2022/11/05 14:08:55;;;;;;;3.30;1.13;;;13.20;99.90;;;;;;4881359;29;20258;-66
2022/11/05 14:11:25;;;;;;;4.80;1.17;;;13.20;99.90;;;;;;4881697;29;20246;-68
2022/11/05 14:13:57;;;;;;;2.03;1.10;;;13.20;99.90;;;;;;4880879;29;20247;-65
2022/11/05 14:16:26;;;;;;;2.60;1.10;;;13.30;99.90;;;;;;4881761;29;20661;-65
2022/11/05 14:19:14;;;;;;;3.17;1.53;;;13.30;99.90;;;;;;4881447;29;20678;-64
2022/11/05 14:21:49;;;;;;;2.97;1.17;;;13.30;99.90;;;;;;4881079;29;20681;-65
2022/11/05 14:24:41;;;;;;;3.93;1.33;;;13.20;99.90;;;;;;4881181;29;20210;-65
2022/11/05 14:27:33;;;;;;;2.93;1.30;;;13.00;99.90;;;;;;4881456;29;20211;-65
2022/11/05 14:30:02;;;;;;;2.03;1.10;;;12.90;99.90;;;;;;4871640;29;20231;-66
2022/11/05 14:32:48;;;;;;;1.83;1.03;;;13.00;99.90;;;;;;4881392;29;20211;-66
2022/11/05 14:35:35;;;;;;;1.80;1.20;;;12.90;99.90;;;;;;4881058;29;20277;-66
2022/11/05 14:38:03;;;;;;;4.73;1.30;;;13.00;99.90;;;;;;4881484;29;20218;-66
2022/11/05 14:40:36;;;;;;;3.77;1.27;;;13.10;99.90;;;;;;4880895;29;20242;-66
2022/11/05 14:43:05;;;;;;;5.40;1.67;;;13.10;99.90;;;;;;4880911;29;20556;-66
2022/11/05 14:45:36;;;;;;;2.07;1.20;;;13.00;99.90;;;;;;4880756;29;20663;-66
2022/11/05 14:48:05;;;;;;;2.70;1.10;;;13.00;99.90;;;;;;4880770;29;20243;-66
2022/11/05 14:50:38;;;;;;;2.93;1.13;;;12.80;99.90;;;;;;4880800;29;20239;-66
2022/11/05 14:53:22;;;;;;;3.37;1.20;;;12.70;99.90;;;;;;4881059;29;20239;-66
2022/11/05 14:55:58;;;;;;;5.20;1.40;;;12.70;99.90;;;;;;4880891;29;20215;-69
2022/11/05 14:58:31;;;;;;;2.33;1.07;;;12.70;99.90;;;;;;4880858;29;20221;-65
2022/11/05 15:01:00;;;;;;;1.90;1.20;;;12.60;99.90;;;;;;4880910;29;20237;-65
2022/11/05 15:04:10;;;;;;;1.77;1.00;;;12.60;99.90;;;;;;4880620;29;20221;-68
2022/11/05 15:06:37;;;;;;;3.60;1.23;;;12.50;99.90;;;;;;4880812;29;20225;-65
2022/11/05 15:09:20;;;;;;;1.77;1.10;;;12.50;99.90;;;;;;4880459;29;20243;-66
2022/11/05 15:12:16;;;;;;;3.30;1.47;;;12.30;99.90;;;;;;4880719;29;20227;-65
2022/11/05 15:14:54;;;;;;;3.37;1.37;;;12.20;99.90;;;;;;4880497;29;20213;-66
2022/11/05 15:17:28;;;;;;;2.20;1.43;;;12.20;99.90;;;;;;4880516;29;20206;-66
2022/11/05 15:20:00;;;;;;;3.50;1.30;;;12.10;99.90;;;;;;4880403;29;20290;-66
2022/11/05 15:22:31;;;;;;;3.10;1.50;;;12.20;99.90;;;;;;4880511;29;20800;-66
2022/11/05 15:24:58;;;;;;;5.50;1.43;;;12.10;99.90;;;;;;4879105;29;20211;-65
2022/11/05 15:27:48;;;;;;;3.20;1.50;;;12.00;99.90;;;;;;4880324;29;20259;-66
2022/11/05 15:30:16;;;;;;;4.00;1.50;;;12.00;99.90;;;;;;4880870;29;20231;-66
2022/11/05 15:32:44;;;;;;;2.60;1.20;;;11.90;99.90;;;;;;4880375;29;20246;-66
2022/11/05 15:35:22;;;;;;;3.83;1.63;;;11.90;99.90;;;;;;4879482;29;20230;-66
2022/11/05 15:37:50;;;;;;;1.73;1.20;;;11.80;99.90;;;;;;4879936;29;20219;-66
2022/11/05 15:40:23;;;;;;;3.33;1.37;;;11.80;99.90;;;;;;4879543;29;20239;-66
2022/11/05 15:43:07;;;;;;;5.50;1.73;;;11.70;99.90;;;;;;4880054;29;20211;-66
2022/11/05 15:45:34;;;;;;;3.47;1.70;;;11.70;99.90;;;;;;4879929;29;20226;-66
2022/11/05 15:48:13;;;;;;;4.90;2.77;;;11.60;99.90;;;;;;4879458;29;20261;-66
2022/11/05 15:50:39;;;;;;;2.90;1.80;;;11.60;99.90;;;;;;4879920;29;20241;-67
2022/11/05 15:53:16;;;;;;;3.27;1.83;;;11.50;99.90;;;;;;4879924;29;20295;-66
2022/11/05 15:55:51;;;;;;;3.10;1.50;;;11.50;99.90;;;;;;4879676;29;20211;-64
2022/11/05 15:58:17;;;;;;;4.90;1.80;;;11.50;99.90;;;;;;4879500;29;20211;-65
2022/11/05 16:00:47;;;;;;;4.40;2.27;;;11.40;99.90;;;;;;4879566;29;20785;-66
2022/11/05 16:03:22;;;;;;;2.83;2.00;;;11.40;99.90;;;;;;4879886;29;20207;-66
2022/11/05 16:05:49;;;;;;;3.73;1.93;;;11.40;99.90;;;;;;4879555;29;20217;-66
2022/11/05 16:08:19;;;;;;;2.23;1.67;;;11.40;99.90;;;;;;4879619;29;20242;-66
2022/11/05 16:10:49;;;;;;;2.17;1.40;;;11.30;99.90;;;;;;4879462;29;20231;-66
2022/11/05 16:13:33;;;;;;;5.87;2.07;;;11.30;99.90;;;;;;4879484;29;20219;-65
2022/11/05 16:16:01;;;;;;;3.77;1.93;;;11.30;99.90;;;;;;4879552;29;20215;-66
2022/11/05 16:18:33;;;;;;;3.80;2.17;;;11.30;99.90;;;;;;4879646;29;20211;-65
2022/11/05 16:21:02;;;;;;;3.67;1.80;;;11.20;99.90;;;;;;4879661;29;20257;-65
2022/11/05 16:23:41;;;;;;;3.77;1.70;;;11.20;99.90;;;;;;4879334;29;20221;-69
2022/11/05 16:26:28;;;;;;;3.93;2.03;;;11.30;99.90;;;;;;4879169;29;20570;-65
2022/11/05 16:28:55;;;;;;;4.37;1.90;;;11.30;99.90;;;;;;4879290;29;20609;-65
2022/11/05 16:31:24;;;;;;;4.93;2.43;;;11.20;99.90;;;;;;4879220;29;20237;-66
2022/11/05 16:33:52;;;;;;;3.30;2.13;;;11.20;99.90;;;;;;4879144;29;20214;-66
2022/11/05 16:36:20;;;;;;;6.63;2.40;;;11.20;99.90;;;;;;4879007;29;20215;-65
2022/11/05 16:38:46;;;;;;;4.03;2.20;;;11.10;99.90;;;;;;4879224;29;20215;-64
2022/11/05 16:41:14;;;;;;;4.43;1.90;;;11.00;99.90;;;;;;4878848;29;20235;-65
2022/11/05 16:43:51;;;;;;;4.83;2.67;;;11.00;99.90;;;;;;4878820;29;20227;-66
2022/11/05 16:46:19;;;;;;;5.07;1.90;;;11.00;99.90;;;;;;4878911;29;20321;-66
2022/11/05 16:48:46;;;;;;;6.90;2.33;;;11.00;99.90;;;;;;4879016;29;20249;-66
2022/11/05 16:51:15;;;;;;;4.03;2.23;;;11.00;99.90;;;;;;4878896;29;20242;-64
2022/11/05 16:53:41;;;;;;;4.23;2.13;;;11.00;99.90;;;;;;4879049;29;20222;-65
2022/11/05 16:56:14;;;;;;;7.17;2.27;;;11.00;99.90;;;;;;4878886;29;20219;-65
2022/11/05 16:58:44;;;;;;;3.40;2.17;;;11.00;99.90;;;;;;4878708;29;20668;-68
2022/11/05 17:01:15;;;;;;;5.00;2.73;;;11.00;99.90;;;;;;4879403;29;20242;-66
2022/11/05 17:03:42;;;;;;;5.90;2.20;;;11.00;99.90;;;;;;4879026;29;20215;-65
2022/11/05 17:06:09;;;;;;;4.00;1.77;;;10.90;99.90;;;;;;4878638;29;20219;-65
2022/11/05 17:08:37;;;;;;;7.63;2.60;;;10.90;99.90;;;;;;4878491;29;20732;-65
2022/11/05 17:11:04;;;;;;;2.97;2.00;;;10.90;99.90;;;;;;4878534;29;20243;-64
2022/11/05 17:13:31;;;;;;;7.90;2.47;;;10.90;99.90;;;;;;4878929;29;20214;-65
2022/11/05 17:15:58;;;;;;;4.53;2.30;;;10.90;99.90;;;;;;4878706;29;20211;-65
2022/11/05 17:18:25;;;;;;;4.93;2.20;;;11.00;99.90;;;;;;4878935;29;20324;-66
2022/11/05 17:20:54;;;;;;;4.07;2.23;;;10.90;99.90;;;;;;4878262;29;20710;-65
2022/11/05 17:23:23;;;;;;;2.93;1.73;;;10.80;99.90;;;;;;4878344;29;20739;-66
2022/11/05 17:25:53;;;;;;;4.83;2.53;;;10.80;99.90;;;;;;4878665;29;20211;-65
2022/11/05 17:28:21;;;;;;;2.80;2.20;;;10.80;99.90;;;;;;4878791;29;20337;-69
2022/11/05 17:30:50;;;;;;;4.63;2.50;;;10.80;99.90;;;;;;4878824;29;20237;-66
2022/11/05 17:33:17;;;;;;;5.27;2.93;;;10.80;99.90;;;;;;4878661;29;20208;-65
2022/11/05 17:35:44;;;;;;;5.27;2.53;;;10.80;99.90;;;;;;4878628;29;20682;-67
2022/11/05 17:38:12;;;;;;;3.93;2.27;;;10.70;99.90;;;;;;4878747;29;20230;-65
2022/11/05 17:40:39;;;;;;;5.43;2.83;;;10.70;99.90;;;;;;4878722;29;20702;-65
2022/11/05 17:43:08;;;;;;;5.10;2.73;;;10.80;99.90;;;;;;4878779;29;20219;-66
2022/11/05 17:45:40;;;;;;;4.77;3.00;;;10.70;99.90;;;;;;4878043;29;20564;-66
2022/11/05 17:48:08;;;;;;;3.07;1.97;;;10.80;99.90;;;;;;4879102;29;20574;-65
2022/11/05 17:50:34;;;;;;;4.83;2.53;;;10.80;99.90;;;;;;4881459;29;20235;-65
2022/11/05 17:53:01;;;;;;;4.73;2.50;;;10.70;99.90;;;;;;4881508;29;20677;-65
2022/11/05 17:55:28;;;;;;;7.13;2.10;;;10.70;99.90;;;;;;4881729;29;20322;-65
2022/11/05 17:57:55;;;;;;;7.47;2.30;;;10.70;99.90;;;;;;4881618;29;20217;-65
2022/11/05 18:00:24;;;;;;;4.40;2.53;;;10.70;99.90;;;;;;4881310;29;20245;-65
2022/11/05 18:02:53;;;;;;;3.97;2.20;;;10.60;99.90;;;;;;4881250;29;20207;-66
2022/11/05 18:05:21;;;;;;;6.20;2.40;;;10.60;99.90;;;;;;4881541;29;20222;-65
2022/11/05 18:07:48;;;;;;;3.67;2.10;;;10.60;99.90;;;;;;4881856;29;20212;-64
2022/11/05 18:10:15;;;;;;;3.57;2.30;;;10.60;99.90;;;;;;4881657;29;20614;-64
2022/11/05 18:12:43;;;;;;;3.67;2.33;;;10.50;99.90;;;;;;4881557;29;20207;-65
2022/11/05 18:15:10;;;;;;;4.07;2.10;;;10.50;99.90;;;;;;4881644;29;20207;-65
2022/11/05 18:17:39;;;;;;;4.80;2.30;;;10.50;99.90;;;;;;4881079;29;20211;-65
2022/11/05 18:20:08;;;;;;;4.60;2.40;;;10.50;99.90;;;;;;4880056;29;20256;-65
2022/11/05 18:22:35;;;;;;;7.17;2.70;;;10.50;99.90;;;;;;4870540;29;20692;-65
2022/11/05 18:25:03;;;;;;;3.97;1.97;;;10.60;99.90;;;;;;4878498;29;20203;-65
2022/11/05 18:27:30;;;;;;;7.17;2.57;;;10.60;99.90;;;;;;4876433;29;20208;-66
2022/11/05 18:29:57;;;;;;;6.93;2.30;;;10.60;99.90;;;;;;4880323;29;20254;-65
2022/11/05 18:32:24;;;;;;;4.20;1.97;;;10.60;99.90;;;;;;4879023;29;20234;-65
2022/11/05 18:34:52;;;;;;;3.70;2.30;;;10.60;99.90;;;;;;4874220;29;20222;-65
2022/11/05 18:37:19;;;;;;;4.80;2.03;;;10.60;99.90;;;;;;4869861;29;20223;-65
2022/11/05 18:39:46;;;;;;;6.37;2.40;;;10.70;99.90;;;;;;4861314;29;20234;-66
2022/11/05 18:42:13;;;;;;;4.70;2.30;;;10.80;99.90;;;;;;4862125;29;20212;-67
2022/11/05 18:44:39;;;;;;;6.90;2.67;;;10.80;99.90;;;;;;4861990;29;20212;-67
2022/11/05 18:47:06;;;;;;;5.83;2.17;;;10.80;99.90;;;;;;4861948;29;20212;-65
2022/11/05 18:49:35;;;;;;;3.20;1.73;;;10.70;99.90;;;;;;4862196;29;20236;-64
2022/11/05 18:52:04;;;;;;;3.43;1.73;;;10.70;99.90;;;;;;4861768;29;20590;-66
2022/11/05 18:54:31;;;;;;;4.27;1.90;;;10.70;99.90;;;;;;4879002;29;20229;-65
2022/11/05 18:56:57;;;;;;;3.90;2.17;;;10.70;99.90;;;;;;4880776;29;20550;-65
2022/11/05 18:59:24;;;;;;;3.07;1.83;;;10.80;99.90;;;;;;4880470;29;20215;-65
2022/11/05 19:01:51;;;;;;;6.20;1.80;;;10.80;99.90;;;;;;4880595;29;20587;-65
2022/11/05 19:04:18;;;;;;;2.97;1.90;;;10.80;99.90;;;;;;4880698;29;20211;-65
2022/11/05 19:06:45;;;;;;;6.23;1.97;;;10.80;99.90;;;;;;4880870;29;20856;-65
2022/11/05 19:09:14;;;;;;;3.53;1.63;;;10.90;99.90;;;;;;4880651;29;20238;-65
2022/11/05 19:11:41;;;;;;;3.77;1.27;;;10.90;99.90;;;;;;4880286;29;20238;-65
2022/11/05 19:14:08;;;;;;;3.67;1.97;;;11.00;99.90;;;;;;4880146;29;20211;-64
2022/11/05 19:16:35;;;;;;;3.87;1.57;;;10.90;99.90;;;;;;4880409;29;20211;-65
2022/11/05 19:19:04;;;;;;;4.20;1.50;;;11.00;99.90;;;;;;4880560;29;20219;-65
2022/11/05 19:21:31;;;;;;;2.53;1.60;;;11.00;99.90;;;;;;4880293;29;20231;-65
2022/11/05 19:24:00;;;;;;;4.17;1.57;;;10.90;99.90;;;;;;4880004;29;20217;-65
2022/11/05 19:26:29;;;;;;;2.87;1.57;;;10.90;99.90;;;;;;4879606;29;20267;-65
2022/11/05 19:28:58;;;;;;;4.57;1.47;;;10.90;99.90;;;;;;4879706;29;20702;-64
2022/11/05 19:31:25;;;;;;;4.93;1.40;;;10.90;99.90;;;;;;4880109;29;20227;-65
2022/11/05 19:33:53;;;;;;;5.03;1.57;;;11.00;99.90;;;;;;4880078;29;20253;-64
2022/11/05 19:36:21;;;;;;;2.97;1.60;;;11.00;99.90;;;;;;4879695;29;20218;-65
2022/11/05 19:38:49;;;;;;;5.13;1.63;;;11.00;99.90;;;;;;4879000;29;20679;-66
2022/11/05 19:41:18;;;;;;;4.67;1.40;;;10.90;99.90;;;;;;4878926;29;20224;-66
2022/11/05 19:43:46;;;;;;;2.67;1.50;;;10.90;99.90;;;;;;4876680;29;20278;-65
2022/11/05 19:46:15;;;;;;;2.80;1.43;;;10.90;99.90;;;;;;4878343;29;20211;-65
2022/11/05 19:48:42;;;;;;;4.07;1.50;;;11.00;99.90;;;;;;4879558;29;20239;-66
2022/11/05 19:51:11;;;;;;;2.43;1.63;;;11.00;99.90;;;;;;4878983;29;20235;-65
2022/11/05 19:53:39;;;;;;;4.73;1.40;;;11.00;99.90;;;;;;4878490;29;20215;-65
2022/11/05 19:56:06;;;;;;;4.00;1.57;;;10.90;99.90;;;;;;4880027;29;20310;-66
2022/11/05 19:58:33;;;;;;;2.30;1.20;;;10.90;99.90;;;;;;4880098;29;20223;-69
2022/11/05 20:01:02;;;;;;;4.13;1.30;;;10.90;99.90;;;;;;4879964;29;20697;-69
2022/11/05 20:03:29;;;;;;;3.77;1.40;;;10.90;99.90;;;;;;4879934;29;20225;-68
2022/11/05 20:06:01;;;;;;;2.67;1.37;;;10.80;99.90;;;;;;4879573;29;20215;-70
2022/11/05 20:08:28;;;;;;;3.83;1.80;;;10.80;99.90;;;;;;4879737;29;20211;-66
2022/11/05 20:10:55;;;;;;;5.43;1.40;;;10.80;99.90;;;;;;4879226;29;20595;-65
2022/11/05 20:13:22;;;;;;;3.20;1.40;;;10.70;99.90;;;;;;4879301;29;20211;-66
2022/11/05 20:15:49;;;;;;;3.00;1.40;;;10.60;99.90;;;;;;4879703;29;20215;-66
2022/11/05 20:18:17;;;;;;;4.60;1.50;;;10.50;99.90;;;;;;4879476;29;20217;-65
2022/11/05 20:20:45;;;;;;;3.80;1.30;;;10.50;99.90;;;;;;4879175;29;20241;-66
2022/11/05 20:23:12;;;;;;;4.30;1.23;;;10.50;99.90;;;;;;4879269;29;20213;-66
2022/11/05 20:25:41;;;;;;;6.73;1.73;;;10.40;99.90;;;;;;4879398;29;20217;-65
2022/11/05 20:28:08;;;;;;;5.57;1.40;;;10.30;99.90;;;;;;4879488;29;20211;-67
2022/11/05 20:30:35;;;;;;;4.07;1.57;;;10.30;99.90;;;;;;4879155;29;20239;-67
2022/11/05 20:33:02;;;;;;;5.50;1.47;;;10.20;99.90;;;;;;4879198;29;20214;-66
2022/11/05 20:35:30;;;;;;;3.20;1.80;;;10.20;99.90;;;;;;4878989;29;20227;-66
2022/11/05 20:37:57;;;;;;;4.07;1.70;;;10.20;99.90;;;;;;4879418;29;20666;-65
2022/11/05 20:40:23;;;;;;;4.17;2.00;;;10.10;99.90;;;;;;4879439;29;20238;-66
2022/11/05 20:42:50;;;;;;;5.83;1.93;;;10.10;99.90;;;;;;4878758;29;20215;-66
2022/11/05 20:45:17;;;;;;;3.37;1.50;;;10.00;99.90;;;;;;4878752;29;20215;-68
2022/11/05 20:47:44;;;;;;;6.57;1.73;;;10.00;99.90;;;;;;4879263;29;20211;-69
2022/11/05 20:50:10;;;;;;;5.20;1.90;;;10.00;99.90;;;;;;4878952;29;20239;-66
2022/11/05 20:52:39;;;;;;;5.03;1.80;;;10.00;99.90;;;;;;4879151;29;20215;-67
2022/11/05 20:55:08;;;;;;;6.30;2.43;;;10.00;99.90;;;;;;4879551;29;20299;-65
2022/11/05 20:57:35;;;;;;;4.30;1.80;;;10.00;99.90;;;;;;4879079;29;20221;-65
2022/11/05 21:00:04;;;;;;;4.37;2.27;;;10.00;99.90;;;;;;4878936;29;20231;-66
2022/11/05 21:02:31;;;;;;;4.97;1.70;;;9.90;99.90;;;;;;4878942;29;20367;-65
2022/11/05 21:04:58;;;;;;;3.73;1.70;;;9.90;99.90;;;;;;4878920;29;20238;-66
2022/11/05 21:07:25;;;;;;;5.17;2.07;;;9.90;99.90;;;;;;4878870;29;20218;-66
2022/11/05 21:09:53;;;;;;;5.03;2.37;;;9.90;99.90;;;;;;4878950;29;20242;-65
2022/11/05 21:12:21;;;;;;;3.47;1.90;;;9.90;99.90;;;;;;4879136;29;20213;-65
2022/11/05 21:14:49;;;;;;;4.83;2.10;;;9.90;99.90;;;;;;4871242;29;24465;-65
2022/11/05 21:17:17;;;;;;;3.97;2.10;;;9.80;99.90;;;;;;4874947;29;20215;-64
2022/11/05 21:19:43;;;;;;;4.83;2.10;;;9.80;99.90;;;;;;4875270;29;20211;-65
2022/11/05 21:22:14;;;;;;;4.73;1.90;;;9.80;99.90;;;;;;4874649;29;20203;-66
2022/11/05 21:24:41;;;;;;;6.80;2.40;;;9.80;99.90;;;;;;4877980;29;20271;-68
2022/11/05 21:27:09;;;;;;;5.37;2.00;;;9.80;99.90;;;;;;4881100;29;20226;-65
2022/11/05 21:29:36;;;;;;;3.37;2.30;;;9.80;99.90;;;;;;4876423;29;20250;-66
2022/11/05 21:32:03;;;;;;;6.47;2.37;;;9.70;99.90;;;;;;4879735;29;20670;-66
2022/11/05 21:34:30;;;;;;;3.47;2.20;;;9.70;99.90;;;;;;4872725;29;20219;-65
2022/11/05 21:36:57;;;;;;;4.37;1.90;;;9.80;99.90;;;;;;4879606;29;20211;-64
2022/11/05 21:39:24;;;;;;;6.93;2.20;;;9.80;99.90;;;;;;4871745;29;20241;-65
2022/11/05 21:41:50;;;;;;;3.67;1.90;;;9.80;99.90;;;;;;4881301;29;20231;-68
2022/11/05 21:44:19;;;;;;;3.80;2.30;;;9.70;99.90;;;;;;4877896;29;20218;-68
2022/11/05 21:46:46;;;;;;;5.37;1.70;;;9.70;99.90;;;;;;4880001;29;20207;-65
2022/11/05 21:49:13;;;;;;;5.77;1.80;;;9.70;99.90;;;;;;4878447;29;20215;-65
2022/11/05 22:00:07;;;;;;;7.97;2.40;;;9.60;99.90;;;;;;4846030;29;20724;-69
2022/11/05 22:02:34;;;;;;;4.53;2.07;;;9.50;99.90;;;;;;4861898;29;20311;-65
2022/11/05 22:05:02;;;;;;;4.40;1.70;;;9.60;99.90;;;;;;4862411;29;20219;-69
2022/11/05 22:07:31;;;;;;;4.60;1.83;;;9.60;99.90;;;;;;4863387;29;20243;-66
2022/11/05 22:09:58;;;;;;;5.13;1.93;;;9.60;99.90;;;;;;4863127;29;20249;-66
2022/11/05 22:12:25;;;;;;;2.10;1.30;;;9.60;99.90;;;;;;4862901;29;20218;-66
2022/11/05 22:14:52;;;;;;;2.67;1.50;;;9.60;99.90;;;;;;4863054;29;20216;-66
2022/11/05 22:17:21;;;;;;;2.70;1.43;;;9.60;99.90;;;;;;4863365;29;20215;-66
2022/11/05 22:19:48;;;;;;;3.80;1.33;;;9.60;99.90;;;;;;4862773;29;20218;-70
2022/11/05 22:22:15;;;;;;;2.93;1.60;;;9.60;99.90;;;;;;4862700;29;20216;-68
2022/11/05 22:24:42;;;;;;;4.73;1.53;;;9.60;99.90;;;;;;4862847;29;20212;-64
2022/11/05 22:27:14;;;;;;;3.23;1.67;;;9.60;99.90;;;;;;4862684;29;20218;-69
2022/11/05 22:29:41;;;;;;;2.70;1.23;;;9.60;99.90;;;;;;4873349;29;20234;-65
